createdAt,value
2022-08-17T00:03:28.801Z,0.00
2022-08-17T00:08:28.784Z,0.00
2022-08-17T00:13:28.715Z,0.00
2022-08-17T00:19:01.157Z,0.00
2022-08-17T00:23:29.606Z,0.00
2022-08-17T00:28:28.556Z,0.00
2022-08-17T00:33:28.774Z,0.00
2022-08-17T00:38:28.453Z,0.00
2022-08-17T00:43:28.373Z,0.00
2022-08-17T00:48:29.839Z,0.00
2022-08-17T00:53:28.286Z,0.00
2022-08-17T00:58:35.428Z,0.00
2022-08-17T01:03:29.177Z,0.00
2022-08-17T01:08:28.116Z,0.00
2022-08-17T01:13:28.054Z,0.00
2022-08-17T01:18:28.020Z,0.00
2022-08-17T01:23:27.944Z,0.00
2022-08-17T01:28:52.785Z,0.00
2022-08-17T01:33:28.848Z,0.00
2022-08-17T01:38:27.776Z,0.00
2022-08-17T01:43:27.785Z,0.00
2022-08-17T01:48:27.741Z,0.00
2022-08-17T01:53:27.635Z,0.00
2022-08-17T01:58:27.579Z,0.00
2022-08-17T02:03:34.589Z,0.00
2022-08-17T02:08:38.690Z,0.00
2022-08-17T02:13:28.427Z,0.00
2022-08-17T02:18:27.349Z,0.00
2022-08-17T02:23:27.286Z,0.00
2022-08-17T02:28:27.249Z,0.00
2022-08-17T02:33:42.154Z,0.00
2022-08-17T02:38:28.139Z,0.00
2022-08-17T02:43:27.088Z,0.00
2022-08-17T02:48:28.168Z,0.00
2022-08-17T02:53:26.979Z,0.00
2022-08-17T02:58:29.589Z,0.00
2022-08-17T03:03:27.861Z,0.00
2022-08-17T03:08:26.970Z,0.00
2022-08-17T03:13:26.751Z,0.00
2022-08-17T03:18:26.860Z,0.00
2022-08-17T03:23:27.276Z,0.00
2022-08-17T03:28:26.620Z,0.00
2022-08-17T03:33:26.555Z,0.00
2022-08-17T03:38:26.497Z,0.00
2022-08-17T03:43:26.430Z,4.00
2022-08-17T03:48:26.370Z,4.00
2022-08-17T03:53:27.468Z,8.00
2022-08-17T03:58:26.258Z,20.00
2022-08-17T04:03:26.213Z,40.00
2022-08-17T04:08:26.161Z,76.00
2022-08-17T04:13:26.089Z,132.00
2022-08-17T04:18:26.042Z,216.00
2022-08-17T04:23:25.977Z,308.00
2022-08-17T04:28:25.940Z,416.00
2022-08-17T04:33:25.890Z,608.00
2022-08-17T04:38:25.818Z,820.00
2022-08-17T04:43:25.760Z,1032.00
2022-08-17T04:48:35.517Z,1360.00
2022-08-17T04:53:26.728Z,1700.00
2022-08-17T04:58:25.632Z,1948.00
2022-08-17T05:03:25.551Z,2280.00
2022-08-17T05:08:25.542Z,2932.00
2022-08-17T05:13:25.458Z,3884.00
2022-08-17T05:18:25.466Z,4796.00
2022-08-17T05:23:25.361Z,5432.00
2022-08-17T05:28:27.544Z,5884.00
2022-08-17T05:33:25.331Z,6632.00
2022-08-17T05:38:25.171Z,7912.00
2022-08-17T05:43:25.119Z,9212.00
2022-08-17T05:48:39.510Z,10632.00
2022-08-17T05:53:26.140Z,11864.00
2022-08-17T05:58:24.941Z,12844.00
2022-08-17T06:03:24.971Z,13040.00
2022-08-17T06:08:24.921Z,12916.00
2022-08-17T06:13:24.863Z,12560.00
2022-08-17T06:18:24.765Z,11488.00
2022-08-17T06:23:24.786Z,10896.00
2022-08-17T06:28:24.707Z,10500.00
2022-08-17T06:33:24.609Z,10552.00
2022-08-17T06:38:37.166Z,11316.00
2022-08-17T06:43:25.490Z,12268.00
2022-08-17T06:48:24.461Z,12528.00
2022-08-17T06:53:24.380Z,13256.00
2022-08-17T06:58:24.313Z,14952.00
2022-08-17T07:03:25.281Z,15612.00
2022-08-17T07:08:29.136Z,16352.00
2022-08-17T07:13:25.283Z,15580.00
2022-08-17T07:18:24.202Z,14784.00
2022-08-17T07:23:24.045Z,15176.00
2022-08-17T07:28:24.007Z,17184.00
2022-08-17T07:33:23.956Z,22720.00
2022-08-17T07:38:24.637Z,25856.00
2022-08-17T07:43:23.902Z,24256.00
2022-08-17T07:48:23.812Z,24032.00
2022-08-17T07:53:23.735Z,23360.00
2022-08-17T07:58:23.755Z,21824.00
2022-08-17T08:03:25.982Z,21152.00
2022-08-17T13:57:43.381Z,25792.00
2022-08-17T14:02:43.414Z,26976.00
2022-08-17T14:10:55.040Z,31904.00
2022-08-17T14:15:56.699Z,37184.00
2022-08-17T14:20:54.907Z,35328.00
2022-08-17T14:25:54.862Z,36320.00
2022-08-17T14:30:54.830Z,32320.00
2022-08-17T14:35:54.804Z,30912.00
2022-08-17T14:40:54.726Z,21024.00
2022-08-17T14:45:54.735Z,21824.00
2022-08-17T14:50:54.627Z,18848.00
2022-08-17T14:55:54.613Z,25664.00
2022-08-17T15:00:54.684Z,28512.00
2022-08-17T15:05:54.519Z,27520.00
2022-08-17T15:10:54.622Z,26336.00
2022-08-17T15:15:54.489Z,20832.00
2022-08-17T15:20:54.360Z,19904.00
2022-08-17T15:25:54.438Z,19072.00
2022-08-17T15:30:54.212Z,19328.00
2022-08-17T15:35:54.176Z,17376.00
2022-08-17T15:40:54.198Z,17780.00
2022-08-17T15:45:59.716Z,15632.00
2022-08-17T15:50:55.060Z,16400.00
2022-08-17T15:55:54.955Z,17408.00
2022-08-17T16:01:18.268Z,13676.00
2022-08-17T16:05:54.878Z,12720.00
2022-08-17T16:10:53.761Z,16008.00
2022-08-17T16:15:57.019Z,16004.00
2022-08-17T16:20:53.644Z,14540.00
2022-08-17T16:25:54.534Z,13972.00
2022-08-17T16:30:54.617Z,15360.00
2022-08-17T16:35:53.473Z,17760.00
2022-08-17T16:40:53.578Z,14596.00
2022-08-17T16:45:53.379Z,9536.00
2022-08-17T16:51:02.922Z,9476.00
2022-08-17T16:55:54.429Z,9596.00
2022-08-17T17:00:53.364Z,8144.00
2022-08-17T17:05:57.828Z,7076.00
2022-08-17T17:10:54.245Z,5872.00
2022-08-17T17:15:53.034Z,5760.00
2022-08-17T17:20:53.033Z,5564.00
2022-08-17T17:25:56.445Z,5360.00
2022-08-17T17:30:52.862Z,5452.00
2022-08-17T17:35:52.917Z,6148.00
2022-08-17T17:40:52.875Z,4552.00
2022-08-17T17:45:52.728Z,3584.00
2022-08-17T17:50:53.750Z,3068.00
2022-08-17T17:55:52.817Z,2796.00
2022-08-17T18:00:52.733Z,2616.00
2022-08-17T18:05:52.571Z,2444.00
2022-08-17T18:10:52.597Z,2000.00
2022-08-17T18:15:52.651Z,1684.00
2022-08-17T18:20:55.957Z,1528.00
2022-08-17T18:25:52.291Z,1240.00
2022-08-17T18:30:52.365Z,956.00
2022-08-17T18:35:58.811Z,728.00
2022-08-17T18:40:53.274Z,524.00
2022-08-17T18:45:52.071Z,364.00
2022-08-17T18:50:53.519Z,240.00
2022-08-17T18:55:52.056Z,148.00
2022-08-17T19:00:51.906Z,84.00
2022-08-17T19:05:51.864Z,44.00
2022-08-17T19:10:51.798Z,24.00
2022-08-17T19:16:13.718Z,12.00
2022-08-17T19:20:52.697Z,4.00
2022-08-17T19:25:52.557Z,0.00
2022-08-17T19:30:51.573Z,0.00
2022-08-17T19:35:51.590Z,0.00
2022-08-17T19:40:53.732Z,0.00
2022-08-17T19:45:51.456Z,0.00
2022-08-17T19:50:51.373Z,0.00
2022-08-17T19:55:51.395Z,0.00
2022-08-17T20:00:51.242Z,0.00
2022-08-17T20:06:11.452Z,0.00
2022-08-17T20:10:54.494Z,0.00
2022-08-17T20:15:51.046Z,0.00
2022-08-17T20:20:51.020Z,0.00
2022-08-17T20:25:50.937Z,0.00
2022-08-17T20:30:50.898Z,0.00
2022-08-17T20:35:50.861Z,0.00
2022-08-17T20:40:51.924Z,0.00
2022-08-17T20:45:50.950Z,0.00
2022-08-17T20:50:50.768Z,0.00
2022-08-17T20:55:51.644Z,0.00
2022-08-17T21:00:50.668Z,0.00
2022-08-17T21:05:50.565Z,0.00
2022-08-17T21:10:51.541Z,0.00
2022-08-17T21:15:50.423Z,0.00
2022-08-17T21:20:50.355Z,0.00
2022-08-17T21:25:50.461Z,0.00
2022-08-17T21:30:50.414Z,0.00
2022-08-17T21:35:50.369Z,0.00
2022-08-17T21:40:50.272Z,0.00
2022-08-17T21:45:50.237Z,0.00
2022-08-17T21:50:50.156Z,0.00
2022-08-17T21:55:49.996Z,0.00
2022-08-17T22:00:50.006Z,0.00
2022-08-17T22:05:49.875Z,0.00
2022-08-17T22:10:49.831Z,0.00
2022-08-17T22:15:49.772Z,0.00
2022-08-17T22:20:49.717Z,0.00
2022-08-17T22:25:49.743Z,0.00
2022-08-17T22:30:49.584Z,0.00
2022-08-17T22:35:49.548Z,0.00
2022-08-17T22:40:51.592Z,0.00
2022-08-17T22:45:49.418Z,0.00
2022-08-17T22:50:49.537Z,0.00
2022-08-17T22:55:49.334Z,0.00
2022-08-17T23:00:49.286Z,0.00
2022-08-17T23:05:49.356Z,0.00
2022-08-17T23:10:49.296Z,0.00
2022-08-17T23:15:49.085Z,0.00
2022-08-17T23:20:49.026Z,0.00
2022-08-17T23:25:48.997Z,0.00
2022-08-17T23:30:48.928Z,0.00
2022-08-17T23:35:48.846Z,0.00
2022-08-17T23:40:48.809Z,0.00
2022-08-17T23:45:48.777Z,0.00
2022-08-17T23:50:48.710Z,0.00
2022-08-17T23:55:48.646Z,0.00
